sensor_id;sensor_type;location;lat;lon;timestamp;P1;durP1;ratioP1;P2;durP2;ratioP2
42760;SDS011;31672;47.638;19.026;2022-11-10T00:01:22;61.27;;;18.73;;
42760;SDS011;31672;47.638;19.026;2022-11-10T00:06:25;50.50;;;15.90;;
42760;SDS011;31672;47.638;19.026;2022-11-10T00:11:28;68.40;;;20.93;;
42760;SDS011;31672;47.638;19.026;2022-11-10T00:16:31;74.93;;;19.97;;
42760;SDS011;31672;47.638;19.026;2022-11-10T00:21:52;74.13;;;20.48;;
42760;SDS011;31672;47.638;19.026;2022-11-10T00:26:56;80.30;;;20.93;;
42760;SDS011;31672;47.638;19.026;2022-11-10T00:31:59;77.13;;;20.10;;
42760;SDS011;31672;47.638;19.026;2022-11-10T00:37:02;72.10;;;20.33;;
42760;SDS011;31672;47.638;19.026;2022-11-10T00:42:05;74.37;;;19.47;;
42760;SDS011;31672;47.638;19.026;2022-11-10T00:47:08;81.70;;;19.80;;
42760;SDS011;31672;47.638;19.026;2022-11-10T00:52:12;64.50;;;18.67;;
42760;SDS011;31672;47.638;19.026;2022-11-10T00:57:14;66.53;;;18.83;;
42760;SDS011;31672;47.638;19.026;2022-11-10T01:02:18;57.87;;;18.23;;
42760;SDS011;31672;47.638;19.026;2022-11-10T01:07:21;51.50;;;15.97;;
42760;SDS011;31672;47.638;19.026;2022-11-10T01:12:27;48.60;;;16.43;;
42760;SDS011;31672;47.638;19.026;2022-11-10T01:17:31;58.43;;;16.07;;
42760;SDS011;31672;47.638;19.026;2022-11-10T01:22:34;63.57;;;18.10;;
42760;SDS011;31672;47.638;19.026;2022-11-10T01:27:37;52.73;;;16.80;;
42760;SDS011;31672;47.638;19.026;2022-11-10T01:32:40;48.90;;;16.33;;
42760;SDS011;31672;47.638;19.026;2022-11-10T01:37:43;55.47;;;16.03;;
42760;SDS011;31672;47.638;19.026;2022-11-10T01:42:52;58.60;;;16.33;;
42760;SDS011;31672;47.638;19.026;2022-11-10T01:48:02;49.60;;;15.13;;
42760;SDS011;31672;47.638;19.026;2022-11-10T01:53:09;53.25;;;17.35;;
42760;SDS011;31672;47.638;19.026;2022-11-10T01:58:23;60.53;;;18.23;;
42760;SDS011;31672;47.638;19.026;2022-11-10T02:03:42;55.43;;;16.40;;
42760;SDS011;31672;47.638;19.026;2022-11-10T02:08:55;63.00;;;16.90;;
42760;SDS011;31672;47.638;19.026;2022-11-10T02:14:01;39.43;;;13.50;;
42760;SDS011;31672;47.638;19.026;2022-11-10T02:19:16;42.50;;;15.50;;
42760;SDS011;31672;47.638;19.026;2022-11-10T02:24:23;42.20;;;14.13;;
42760;SDS011;31672;47.638;19.026;2022-11-10T02:29:25;32.70;;;13.10;;
42760;SDS011;31672;47.638;19.026;2022-11-10T02:34:28;32.60;;;11.27;;
42760;SDS011;31672;47.638;19.026;2022-11-10T02:39:32;43.27;;;14.10;;
42760;SDS011;31672;47.638;19.026;2022-11-10T02:44:35;44.80;;;14.27;;
42760;SDS011;31672;47.638;19.026;2022-11-10T02:49:39;40.53;;;13.87;;
42760;SDS011;31672;47.638;19.026;2022-11-10T02:54:42;44.73;;;15.30;;
42760;SDS011;31672;47.638;19.026;2022-11-10T02:59:45;47.47;;;15.60;;
42760;SDS011;31672;47.638;19.026;2022-11-10T03:04:49;50.37;;;14.70;;
42760;SDS011;31672;47.638;19.026;2022-11-10T03:09:52;43.50;;;13.67;;
42760;SDS011;31672;47.638;19.026;2022-11-10T03:14:55;40.97;;;12.03;;
42760;SDS011;31672;47.638;19.026;2022-11-10T03:19:58;48.43;;;13.87;;
42760;SDS011;31672;47.638;19.026;2022-11-10T03:25:01;33.57;;;10.50;;
42760;SDS011;31672;47.638;19.026;2022-11-10T03:30:05;32.70;;;10.50;;
42760;SDS011;31672;47.638;19.026;2022-11-10T03:35:09;30.37;;;10.77;;
42760;SDS011;31672;47.638;19.026;2022-11-10T03:40:12;35.10;;;11.50;;
42760;SDS011;31672;47.638;19.026;2022-11-10T03:45:15;40.57;;;13.93;;
42760;SDS011;31672;47.638;19.026;2022-11-10T03:50:18;40.30;;;13.97;;
42760;SDS011;31672;47.638;19.026;2022-11-10T03:55:22;32.93;;;11.67;;
42760;SDS011;31672;47.638;19.026;2022-11-10T04:00:24;36.13;;;12.23;;
42760;SDS011;31672;47.638;19.026;2022-11-10T04:05:27;28.50;;;10.03;;
42760;SDS011;31672;47.638;19.026;2022-11-10T04:10:49;36.42;;;13.98;;
42760;SDS011;31672;47.638;19.026;2022-11-10T04:15:52;27.77;;;11.50;;
42760;SDS011;31672;47.638;19.026;2022-11-10T04:20:56;34.73;;;12.57;;
42760;SDS011;31672;47.638;19.026;2022-11-10T04:31:29;32.53;;;13.70;;
42760;SDS011;31672;47.638;19.026;2022-11-10T04:36:35;28.93;;;12.43;;
42760;SDS011;31672;47.638;19.026;2022-11-10T04:41:40;33.40;;;12.53;;
42760;SDS011;31672;47.638;19.026;2022-11-10T04:46:43;28.23;;;11.80;;
42760;SDS011;31672;47.638;19.026;2022-11-10T04:51:46;27.93;;;12.03;;
42760;SDS011;31672;47.638;19.026;2022-11-10T04:56:49;33.07;;;13.67;;
42760;SDS011;31672;47.638;19.026;2022-11-10T05:01:52;34.50;;;13.03;;
42760;SDS011;31672;47.638;19.026;2022-11-10T05:06:55;29.97;;;12.87;;
42760;SDS011;31672;47.638;19.026;2022-11-10T05:11:58;25.70;;;12.23;;
42760;SDS011;31672;47.638;19.026;2022-11-10T05:17:01;25.00;;;11.07;;
42760;SDS011;31672;47.638;19.026;2022-11-10T05:22:04;26.80;;;11.43;;
42760;SDS011;31672;47.638;19.026;2022-11-10T05:27:08;28.03;;;12.47;;
42760;SDS011;31672;47.638;19.026;2022-11-10T05:32:11;26.40;;;13.17;;
42760;SDS011;31672;47.638;19.026;2022-11-10T05:37:14;34.73;;;14.93;;
42760;SDS011;31672;47.638;19.026;2022-11-10T05:42:18;26.63;;;13.20;;
42760;SDS011;31672;47.638;19.026;2022-11-10T05:47:21;31.10;;;12.20;;
42760;SDS011;31672;47.638;19.026;2022-11-10T05:52:23;28.80;;;14.70;;
42760;SDS011;31672;47.638;19.026;2022-11-10T05:57:26;24.93;;;12.67;;
42760;SDS011;31672;47.638;19.026;2022-11-10T06:02:29;20.67;;;11.67;;
42760;SDS011;31672;47.638;19.026;2022-11-10T06:07:32;28.37;;;10.83;;
42760;SDS011;31672;47.638;19.026;2022-11-10T06:12:35;21.57;;;11.07;;
42760;SDS011;31672;47.638;19.026;2022-11-10T06:17:38;27.90;;;11.60;;
42760;SDS011;31672;47.638;19.026;2022-11-10T06:22:41;22.07;;;11.93;;
42760;SDS011;31672;47.638;19.026;2022-11-10T06:27:44;20.90;;;10.20;;
42760;SDS011;31672;47.638;19.026;2022-11-10T06:32:47;20.37;;;10.07;;
42760;SDS011;31672;47.638;19.026;2022-11-10T06:43:08;22.90;;;10.80;;
42760;SDS011;31672;47.638;19.026;2022-11-10T06:48:11;20.77;;;9.83;;
42760;SDS011;31672;47.638;19.026;2022-11-10T06:53:15;23.67;;;10.33;;
42760;SDS011;31672;47.638;19.026;2022-11-10T06:58:21;23.70;;;10.30;;
42760;SDS011;31672;47.638;19.026;2022-11-10T07:03:24;23.03;;;10.60;;
42760;SDS011;31672;47.638;19.026;2022-11-10T07:08:28;20.83;;;10.90;;
42760;SDS011;31672;47.638;19.026;2022-11-10T07:13:31;20.77;;;9.83;;
42760;SDS011;31672;47.638;19.026;2022-11-10T07:18:34;23.40;;;10.37;;
42760;SDS011;31672;47.638;19.026;2022-11-10T07:23:37;22.00;;;10.47;;
42760;SDS011;31672;47.638;19.026;2022-11-10T07:28:41;22.70;;;10.83;;
42760;SDS011;31672;47.638;19.026;2022-11-10T07:33:44;19.20;;;9.43;;
42760;SDS011;31672;47.638;19.026;2022-11-10T07:38:55;23.95;;;10.80;;
42760;SDS011;31672;47.638;19.026;2022-11-10T07:43:58;24.27;;;11.53;;
42760;SDS011;31672;47.638;19.026;2022-11-10T07:49:01;21.53;;;11.07;;
42760;SDS011;31672;47.638;19.026;2022-11-10T07:54:04;23.17;;;11.40;;
42760;SDS011;31672;47.638;19.026;2022-11-10T07:59:07;20.23;;;10.10;;
42760;SDS011;31672;47.638;19.026;2022-11-10T08:04:10;25.43;;;12.30;;
42760;SDS011;31672;47.638;19.026;2022-11-10T08:09:13;21.07;;;11.50;;
42760;SDS011;31672;47.638;19.026;2022-11-10T08:14:16;16.90;;;8.37;;
42760;SDS011;31672;47.638;19.026;2022-11-10T08:19:19;17.07;;;9.30;;
42760;SDS011;31672;47.638;19.026;2022-11-10T08:24:22;18.90;;;10.23;;
42760;SDS011;31672;47.638;19.026;2022-11-10T08:29:25;18.40;;;8.63;;
42760;SDS011;31672;47.638;19.026;2022-11-10T08:34:27;17.30;;;8.57;;
42760;SDS011;31672;47.638;19.026;2022-11-10T08:39:30;14.53;;;7.80;;
42760;SDS011;31672;47.638;19.026;2022-11-10T08:44:40;14.33;;;8.40;;
42760;SDS011;31672;47.638;19.026;2022-11-10T08:49:43;15.67;;;8.37;;
42760;SDS011;31672;47.638;19.026;2022-11-10T08:54:46;12.00;;;7.37;;
42760;SDS011;31672;47.638;19.026;2022-11-10T08:59:49;14.38;;;8.23;;
42760;SDS011;31672;47.638;19.026;2022-11-10T09:04:52;14.63;;;7.70;;
42760;SDS011;31672;47.638;19.026;2022-11-10T09:09:56;15.07;;;6.97;;
42760;SDS011;31672;47.638;19.026;2022-11-10T09:15:09;12.73;;;7.07;;
42760;SDS011;31672;47.638;19.026;2022-11-10T09:20:13;15.00;;;8.23;;
42760;SDS011;31672;47.638;19.026;2022-11-10T09:25:16;14.88;;;8.75;;
42760;SDS011;31672;47.638;19.026;2022-11-10T09:30:19;13.18;;;7.57;;
42760;SDS011;31672;47.638;19.026;2022-11-10T09:35:22;13.13;;;6.88;;
42760;SDS011;31672;47.638;19.026;2022-11-10T09:45:36;12.52;;;7.15;;
42760;SDS011;31672;47.638;19.026;2022-11-10T09:56:06;14.85;;;7.50;;
42760;SDS011;31672;47.638;19.026;2022-11-10T10:07:36;20.20;;;10.05;;
42760;SDS011;31672;47.638;19.026;2022-11-10T10:29:01;16.38;;;9.18;;
42760;SDS011;31672;47.638;19.026;2022-11-10T10:34:16;18.13;;;9.43;;
42760;SDS011;31672;47.638;19.026;2022-11-10T10:39:29;15.10;;;8.17;;
42760;SDS011;31672;47.638;19.026;2022-11-10T10:45:10;16.85;;;8.93;;
42760;SDS011;31672;47.638;19.026;2022-11-10T10:55:26;24.40;;;12.02;;
42760;SDS011;31672;47.638;19.026;2022-11-10T11:00:31;23.85;;;13.25;;
42760;SDS011;31672;47.638;19.026;2022-11-10T11:05:58;26.90;;;12.90;;
42760;SDS011;31672;47.638;19.026;2022-11-10T11:11:22;24.52;;;12.35;;
42760;SDS011;31672;47.638;19.026;2022-11-10T11:16:35;23.23;;;12.43;;
42760;SDS011;31672;47.638;19.026;2022-11-10T11:27:03;27.10;;;14.20;;
42760;SDS011;31672;47.638;19.026;2022-11-10T11:38:47;23.50;;;12.23;;
42760;SDS011;31672;47.638;19.026;2022-11-10T11:44:18;25.27;;;12.67;;
42760;SDS011;31672;47.638;19.026;2022-11-10T12:00:44;22.07;;;11.30;;
42760;SDS011;31672;47.638;19.026;2022-11-10T12:06:32;25.10;;;12.03;;
42760;SDS011;31672;47.638;19.026;2022-11-10T12:17:38;28.23;;;12.93;;
42760;SDS011;31672;47.638;19.026;2022-11-10T12:23:14;25.75;;;12.75;;
42760;SDS011;31672;47.638;19.026;2022-11-10T12:28:24;28.77;;;13.07;;
42760;SDS011;31672;47.638;19.026;2022-11-10T12:33:44;28.70;;;12.60;;
42760;SDS011;31672;47.638;19.026;2022-11-10T12:39:19;29.80;;;13.17;;
42760;SDS011;31672;47.638;19.026;2022-11-10T12:44:34;25.30;;;12.17;;
42760;SDS011;31672;47.638;19.026;2022-11-10T12:50:12;27.70;;;12.83;;
42760;SDS011;31672;47.638;19.026;2022-11-10T12:55:32;32.57;;;15.77;;
42760;SDS011;31672;47.638;19.026;2022-11-10T13:01:05;30.63;;;13.67;;
42760;SDS011;31672;47.638;19.026;2022-11-10T13:06:24;25.07;;;13.00;;
42760;SDS011;31672;47.638;19.026;2022-11-10T13:11:38;25.87;;;13.30;;
42760;SDS011;31672;47.638;19.026;2022-11-10T13:42:36;28.80;;;13.77;;
42760;SDS011;31672;47.638;19.026;2022-11-10T13:47:49;26.20;;;12.87;;
42760;SDS011;31672;47.638;19.026;2022-11-10T13:58:31;28.23;;;13.07;;
42760;SDS011;31672;47.638;19.026;2022-11-10T14:08:53;29.03;;;13.17;;
42760;SDS011;31672;47.638;19.026;2022-11-10T14:14:46;30.13;;;14.63;;
42760;SDS011;31672;47.638;19.026;2022-11-10T14:19:42;27.17;;;12.70;;
42760;SDS011;31672;47.638;19.026;2022-11-10T14:24:55;28.03;;;14.10;;
42760;SDS011;31672;47.638;19.026;2022-11-10T14:35:27;30.90;;;13.90;;
42760;SDS011;31672;47.638;19.026;2022-11-10T14:40:32;29.13;;;13.47;;
42760;SDS011;31672;47.638;19.026;2022-11-10T14:45:35;27.97;;;13.40;;
42760;SDS011;31672;47.638;19.026;2022-11-10T14:50:39;28.27;;;13.73;;
42760;SDS011;31672;47.638;19.026;2022-11-10T14:55:43;26.73;;;13.27;;
42760;SDS011;31672;47.638;19.026;2022-11-10T15:00:54;26.43;;;12.60;;
42760;SDS011;31672;47.638;19.026;2022-11-10T15:05:58;26.80;;;11.97;;
42760;SDS011;31672;47.638;19.026;2022-11-10T15:11:01;26.00;;;12.27;;
42760;SDS011;31672;47.638;19.026;2022-11-10T15:16:25;25.60;;;12.03;;
42760;SDS011;31672;47.638;19.026;2022-11-10T15:21:29;28.43;;;12.63;;
42760;SDS011;31672;47.638;19.026;2022-11-10T15:26:37;30.13;;;13.57;;
42760;SDS011;31672;47.638;19.026;2022-11-10T15:31:42;24.93;;;12.97;;
42760;SDS011;31672;47.638;19.026;2022-11-10T15:36:45;27.23;;;12.67;;
42760;SDS011;31672;47.638;19.026;2022-11-10T15:41:48;26.33;;;11.97;;
42760;SDS011;31672;47.638;19.026;2022-11-10T15:46:58;24.70;;;12.90;;
42760;SDS011;31672;47.638;19.026;2022-11-10T15:52:01;29.70;;;13.97;;
42760;SDS011;31672;47.638;19.026;2022-11-10T15:57:25;32.37;;;14.50;;
42760;SDS011;31672;47.638;19.026;2022-11-10T16:02:28;28.83;;;13.50;;
42760;SDS011;31672;47.638;19.026;2022-11-10T16:07:31;25.87;;;12.00;;
42760;SDS011;31672;47.638;19.026;2022-11-10T16:12:35;26.53;;;13.27;;
42760;SDS011;31672;47.638;19.026;2022-11-10T16:17:39;29.50;;;12.90;;
42760;SDS011;31672;47.638;19.026;2022-11-10T16:22:42;26.53;;;12.70;;
42760;SDS011;31672;47.638;19.026;2022-11-10T16:27:45;26.00;;;11.83;;
42760;SDS011;31672;47.638;19.026;2022-11-10T16:32:49;26.37;;;13.00;;
42760;SDS011;31672;47.638;19.026;2022-11-10T16:37:52;21.93;;;11.73;;
42760;SDS011;31672;47.638;19.026;2022-11-10T16:42:55;23.90;;;12.27;;
42760;SDS011;31672;47.638;19.026;2022-11-10T16:47:58;27.73;;;11.73;;
42760;SDS011;31672;47.638;19.026;2022-11-10T16:53:02;24.57;;;12.13;;
42760;SDS011;31672;47.638;19.026;2022-11-10T16:58:07;27.10;;;11.83;;
42760;SDS011;31672;47.638;19.026;2022-11-10T17:08:29;23.67;;;10.97;;
42760;SDS011;31672;47.638;19.026;2022-11-10T17:13:35;26.03;;;12.27;;
42760;SDS011;31672;47.638;19.026;2022-11-10T17:18:38;25.90;;;11.70;;
42760;SDS011;31672;47.638;19.026;2022-11-10T17:23:41;27.00;;;12.20;;
42760;SDS011;31672;47.638;19.026;2022-11-10T17:28:44;21.00;;;11.00;;
42760;SDS011;31672;47.638;19.026;2022-11-10T17:33:47;23.27;;;12.10;;
42760;SDS011;31672;47.638;19.026;2022-11-10T17:38:50;23.37;;;11.40;;
42760;SDS011;31672;47.638;19.026;2022-11-10T17:43:54;26.80;;;13.43;;
42760;SDS011;31672;47.638;19.026;2022-11-10T17:48:58;29.70;;;13.87;;
42760;SDS011;31672;47.638;19.026;2022-11-10T17:54:04;29.20;;;12.67;;
42760;SDS011;31672;47.638;19.026;2022-11-10T17:59:19;23.77;;;12.20;;
42760;SDS011;31672;47.638;19.026;2022-11-10T18:04:22;24.13;;;11.57;;
42760;SDS011;31672;47.638;19.026;2022-11-10T18:09:25;22.37;;;11.10;;
42760;SDS011;31672;47.638;19.026;2022-11-10T18:14:27;21.43;;;10.57;;
42760;SDS011;31672;47.638;19.026;2022-11-10T18:19:31;21.40;;;10.10;;
42760;SDS011;31672;47.638;19.026;2022-11-10T18:24:34;26.60;;;13.10;;
42760;SDS011;31672;47.638;19.026;2022-11-10T18:29:37;22.37;;;10.93;;
42760;SDS011;31672;47.638;19.026;2022-11-10T18:34:40;22.90;;;10.77;;
42760;SDS011;31672;47.638;19.026;2022-11-10T18:39:43;22.83;;;10.43;;
42760;SDS011;31672;47.638;19.026;2022-11-10T18:44:46;20.43;;;10.03;;
42760;SDS011;31672;47.638;19.026;2022-11-10T18:49:52;18.83;;;9.90;;
42760;SDS011;31672;47.638;19.026;2022-11-10T18:54:56;21.43;;;9.67;;
42760;SDS011;31672;47.638;19.026;2022-11-10T18:59:59;16.73;;;8.83;;
42760;SDS011;31672;47.638;19.026;2022-11-10T19:05:02;16.47;;;8.73;;
42760;SDS011;31672;47.638;19.026;2022-11-10T19:10:06;15.57;;;7.43;;
42760;SDS011;31672;47.638;19.026;2022-11-10T19:15:09;18.30;;;8.67;;
42760;SDS011;31672;47.638;19.026;2022-11-10T19:20:14;16.50;;;8.23;;
42760;SDS011;31672;47.638;19.026;2022-11-10T19:25:17;15.63;;;7.57;;
42760;SDS011;31672;47.638;19.026;2022-11-10T19:30:20;15.97;;;8.23;;
42760;SDS011;31672;47.638;19.026;2022-11-10T19:35:23;18.50;;;8.77;;
42760;SDS011;31672;47.638;19.026;2022-11-10T19:40:25;16.07;;;7.80;;
42760;SDS011;31672;47.638;19.026;2022-11-10T19:45:28;15.87;;;7.70;;
42760;SDS011;31672;47.638;19.026;2022-11-10T19:50:31;14.57;;;8.30;;
42760;SDS011;31672;47.638;19.026;2022-11-10T19:55:34;17.67;;;7.50;;
42760;SDS011;31672;47.638;19.026;2022-11-10T20:00:38;18.33;;;9.03;;
42760;SDS011;31672;47.638;19.026;2022-11-10T20:05:41;31.87;;;12.77;;
42760;SDS011;31672;47.638;19.026;2022-11-10T20:10:48;18.70;;;9.60;;
42760;SDS011;31672;47.638;19.026;2022-11-10T20:15:51;19.77;;;7.97;;
42760;SDS011;31672;47.638;19.026;2022-11-10T20:20:54;22.13;;;9.70;;
42760;SDS011;31672;47.638;19.026;2022-11-10T20:26:03;27.90;;;13.83;;
42760;SDS011;31672;47.638;19.026;2022-11-10T20:31:19;35.73;;;19.03;;
42760;SDS011;31672;47.638;19.026;2022-11-10T20:36:26;19.07;;;9.77;;
42760;SDS011;31672;47.638;19.026;2022-11-10T20:41:32;14.43;;;7.57;;
42760;SDS011;31672;47.638;19.026;2022-11-10T20:46:35;15.03;;;7.20;;
42760;SDS011;31672;47.638;19.026;2022-11-10T20:51:57;14.43;;;7.37;;
42760;SDS011;31672;47.638;19.026;2022-11-10T20:57:02;16.00;;;8.23;;
42760;SDS011;31672;47.638;19.026;2022-11-10T21:02:05;15.10;;;8.13;;
42760;SDS011;31672;47.638;19.026;2022-11-10T21:07:08;17.13;;;7.97;;
42760;SDS011;31672;47.638;19.026;2022-11-10T21:12:12;14.37;;;8.10;;
42760;SDS011;31672;47.638;19.026;2022-11-10T21:17:33;18.30;;;9.02;;
42760;SDS011;31672;47.638;19.026;2022-11-10T21:22:43;15.70;;;8.10;;
42760;SDS011;31672;47.638;19.026;2022-11-10T21:27:46;14.60;;;7.33;;
42760;SDS011;31672;47.638;19.026;2022-11-10T21:32:49;17.37;;;7.97;;
42760;SDS011;31672;47.638;19.026;2022-11-10T21:37:52;31.87;;;12.63;;
42760;SDS011;31672;47.638;19.026;2022-11-10T21:42:55;17.20;;;8.50;;
42760;SDS011;31672;47.638;19.026;2022-11-10T21:48:01;14.40;;;7.03;;
42760;SDS011;31672;47.638;19.026;2022-11-10T21:53:05;15.43;;;7.83;;
42760;SDS011;31672;47.638;19.026;2022-11-10T21:58:09;11.63;;;6.77;;
42760;SDS011;31672;47.638;19.026;2022-11-10T22:03:12;14.57;;;7.33;;
42760;SDS011;31672;47.638;19.026;2022-11-10T22:08:15;18.90;;;8.30;;
42760;SDS011;31672;47.638;19.026;2022-11-10T22:13:23;16.07;;;7.37;;
42760;SDS011;31672;47.638;19.026;2022-11-10T22:18:44;17.67;;;8.00;;
42760;SDS011;31672;47.638;19.026;2022-11-10T22:23:47;11.97;;;6.73;;
42760;SDS011;31672;47.638;19.026;2022-11-10T22:29:09;9.80;;;5.28;;
42760;SDS011;31672;47.638;19.026;2022-11-10T22:34:12;12.23;;;6.23;;
42760;SDS011;31672;47.638;19.026;2022-11-10T22:39:15;10.13;;;5.83;;
42760;SDS011;31672;47.638;19.026;2022-11-10T22:44:18;11.57;;;6.43;;
42760;SDS011;31672;47.638;19.026;2022-11-10T22:49:26;13.77;;;6.50;;
42760;SDS011;31672;47.638;19.026;2022-11-10T22:54:29;18.33;;;8.20;;
42760;SDS011;31672;47.638;19.026;2022-11-10T22:59:32;15.30;;;7.53;;
42760;SDS011;31672;47.638;19.026;2022-11-10T23:04:35;13.87;;;6.60;;
42760;SDS011;31672;47.638;19.026;2022-11-10T23:09:38;13.73;;;6.87;;
42760;SDS011;31672;47.638;19.026;2022-11-10T23:14:41;13.00;;;6.53;;
42760;SDS011;31672;47.638;19.026;2022-11-10T23:19:44;11.90;;;5.57;;
42760;SDS011;31672;47.638;19.026;2022-11-10T23:24:47;9.73;;;5.57;;
42760;SDS011;31672;47.638;19.026;2022-11-10T23:29:57;13.27;;;5.37;;
42760;SDS011;31672;47.638;19.026;2022-11-10T23:35:01;11.60;;;5.70;;
42760;SDS011;31672;47.638;19.026;2022-11-10T23:40:04;10.23;;;5.67;;
42760;SDS011;31672;47.638;19.026;2022-11-10T23:45:08;9.27;;;4.93;;
42760;SDS011;31672;47.638;19.026;2022-11-10T23:50:11;9.40;;;4.63;;
42760;SDS011;31672;47.638;19.026;2022-11-10T23:55:14;9.63;;;4.87;;
